sensor_id;sensor_type;location;lat;lon;timestamp;pressure;altitude;pressure_sealevel;temperature;humidity
21821;BME280;11073;48.586;12.066;2023-01-08T00:02:51;96083.94;;;4.55;69.33
21821;BME280;11073;48.586;12.066;2023-01-08T00:05:32;96109.09;;;4.74;69.25
21821;BME280;11073;48.586;12.066;2023-01-08T00:08:11;96088.25;;;4.63;69.37
21821;BME280;11073;48.586;12.066;2023-01-08T00:11:06;96027.31;;;4.25;69.07
21821;BME280;11073;48.586;12.066;2023-01-08T00:13:58;96102.09;;;4.60;68.79
21821;BME280;11073;48.586;12.066;2023-01-08T00:16:35;96026.72;;;4.10;68.80
21821;BME280;11073;48.586;12.066;2023-01-08T00:19:10;96018.47;;;4.05;69.09
21821;BME280;11073;48.586;12.066;2023-01-08T00:21:44;96004.47;;;3.96;68.99
21821;BME280;11073;48.586;12.066;2023-01-08T00:24:21;96087.28;;;4.51;69.17
21821;BME280;11073;48.586;12.066;2023-01-08T00:27:08;96025.47;;;4.19;69.40
21821;BME280;11073;48.586;12.066;2023-01-08T00:30:04;96048.75;;;4.32;69.36
21821;BME280;11073;48.586;12.066;2023-01-08T00:32:36;95973.38;;;3.95;69.09
21821;BME280;11073;48.586;12.066;2023-01-08T00:35:09;96049.53;;;4.46;69.02
21821;BME280;11073;48.586;12.066;2023-01-08T00:37:42;96052.22;;;4.46;69.18
21821;BME280;11073;48.586;12.066;2023-01-08T00:40:37;96059.84;;;4.49;69.29
21821;BME280;11073;48.586;12.066;2023-01-08T00:43:13;96031.84;;;4.31;69.23
21821;BME280;11073;48.586;12.066;2023-01-08T00:46:05;95947.63;;;3.81;69.25
21821;BME280;11073;48.586;12.066;2023-01-08T00:48:39;96034.50;;;4.38;69.16
21821;BME280;11073;48.586;12.066;2023-01-08T00:51:08;95998.28;;;4.09;69.16
21821;BME280;11073;48.586;12.066;2023-01-08T00:53:43;96030.78;;;4.39;69.24
21821;BME280;11073;48.586;12.066;2023-01-08T00:56:14;95967.78;;;4.03;69.17
21821;BME280;11073;48.586;12.066;2023-01-08T00:59:07;96036.97;;;4.46;69.14
21821;BME280;11073;48.586;12.066;2023-01-08T01:01:38;95956.91;;;3.85;68.79
21821;BME280;11073;48.586;12.066;2023-01-08T01:04:09;95953.00;;;3.74;68.75
21821;BME280;11073;48.586;12.066;2023-01-08T01:06:43;95968.25;;;3.74;68.64
21821;BME280;11073;48.586;12.066;2023-01-08T01:09:15;95992.53;;;3.85;68.60
21821;BME280;11073;48.586;12.066;2023-01-08T01:11:46;95989.44;;;3.82;68.52
21821;BME280;11073;48.586;12.066;2023-01-08T01:14:17;96040.13;;;4.03;68.68
21821;BME280;11073;48.586;12.066;2023-01-08T01:17:06;96014.38;;;3.89;68.78
21821;BME280;11073;48.586;12.066;2023-01-08T01:19:36;95947.84;;;3.53;68.62
21821;BME280;11073;48.586;12.066;2023-01-08T01:22:06;95995.00;;;3.87;69.12
21821;BME280;11073;48.586;12.066;2023-01-08T01:24:38;95930.59;;;3.49;69.19
21821;BME280;11073;48.586;12.066;2023-01-08T01:27:10;95997.09;;;3.78;69.31
21821;BME280;11073;48.586;12.066;2023-01-08T01:29:39;95979.97;;;3.66;69.32
21821;BME280;11073;48.586;12.066;2023-01-08T01:32:10;95946.84;;;3.41;69.18
21821;BME280;11073;48.586;12.066;2023-01-08T01:34:41;95926.66;;;3.31;69.24
21821;BME280;11073;48.586;12.066;2023-01-08T01:37:14;95970.72;;;3.55;69.56
21821;BME280;11073;48.586;12.066;2023-01-08T01:39:46;95998.28;;;3.69;69.25
21821;BME280;11073;48.586;12.066;2023-01-08T01:42:17;95944.56;;;3.24;68.96
21821;BME280;11073;48.586;12.066;2023-01-08T01:45:01;96001.59;;;3.45;69.10
21821;BME280;11073;48.586;12.066;2023-01-08T01:47:35;95935.28;;;3.00;69.37
21821;BME280;11073;48.586;12.066;2023-01-08T01:50:09;95945.34;;;2.92;69.32
21821;BME280;11073;48.586;12.066;2023-01-08T01:52:43;96038.66;;;3.54;69.55
21821;BME280;11073;48.586;12.066;2023-01-08T01:55:15;96017.03;;;3.43;69.58
21821;BME280;11073;48.586;12.066;2023-01-08T01:57:50;96036.41;;;3.58;69.70
21821;BME280;11073;48.586;12.066;2023-01-08T02:00:21;96027.34;;;3.59;69.93
21821;BME280;11073;48.586;12.066;2023-01-08T02:02:51;95946.38;;;3.04;69.85
21821;BME280;11073;48.586;12.066;2023-01-08T02:05:21;95964.50;;;3.09;69.81
21821;BME280;11073;48.586;12.066;2023-01-08T02:07:54;96028.78;;;3.42;70.16
21821;BME280;11073;48.586;12.066;2023-01-08T02:10:31;96023.41;;;3.42;70.06
21821;BME280;11073;48.586;12.066;2023-01-08T02:13:07;95961.84;;;3.15;70.13
21821;BME280;11073;48.586;12.066;2023-01-08T02:15:48;95925.81;;;2.98;70.07
21821;BME280;11073;48.586;12.066;2023-01-08T02:18:27;95949.06;;;3.17;70.08
21821;BME280;11073;48.586;12.066;2023-01-08T02:21:01;95972.97;;;3.39;70.10
21821;BME280;11073;48.586;12.066;2023-01-08T02:23:37;95947.06;;;3.26;69.78
21821;BME280;11073;48.586;12.066;2023-01-08T02:26:16;95969.91;;;3.35;69.91
21821;BME280;11073;48.586;12.066;2023-01-08T02:28:54;95922.50;;;2.96;69.88
21821;BME280;11073;48.586;12.066;2023-01-08T02:31:26;95965.75;;;3.19;69.90
21821;BME280;11073;48.586;12.066;2023-01-08T02:33:56;95917.34;;;2.81;69.78
21821;BME280;11073;48.586;12.066;2023-01-08T02:36:43;95927.84;;;2.89;69.86
21821;BME280;11073;48.586;12.066;2023-01-08T02:39:19;95914.66;;;2.81;69.88
21821;BME280;11073;48.586;12.066;2023-01-08T02:42:04;95902.28;;;2.60;69.55
21821;BME280;11073;48.586;12.066;2023-01-08T02:44:43;95956.22;;;2.84;69.80
21821;BME280;11073;48.586;12.066;2023-01-08T02:47:22;95903.69;;;2.43;69.57
21821;BME280;11073;48.586;12.066;2023-01-08T02:49:55;95890.88;;;2.25;69.64
21821;BME280;11073;48.586;12.066;2023-01-08T02:52:30;95910.88;;;2.42;69.51
21821;BME280;11073;48.586;12.066;2023-01-08T02:55:02;95884.72;;;2.25;69.52
21821;BME280;11073;48.586;12.066;2023-01-08T02:57:34;95886.38;;;2.26;69.71
21821;BME280;11073;48.586;12.066;2023-01-08T03:00:05;95972.28;;;2.84;69.73
21821;BME280;11073;48.586;12.066;2023-01-08T03:02:35;95875.25;;;2.22;69.55
21821;BME280;11073;48.586;12.066;2023-01-08T03:05:18;95931.44;;;2.48;69.85
21821;BME280;11073;48.586;12.066;2023-01-08T03:07:50;95879.75;;;2.21;69.74
21821;BME280;11073;48.586;12.066;2023-01-08T03:10:21;95970.81;;;2.81;69.97
21821;BME280;11073;48.586;12.066;2023-01-08T03:12:56;95966.69;;;2.79;70.02
21821;BME280;11073;48.586;12.066;2023-01-08T03:15:30;95946.31;;;2.71;70.10
21821;BME280;11073;48.586;12.066;2023-01-08T03:18:05;95949.63;;;2.80;70.09
21821;BME280;11073;48.586;12.066;2023-01-08T03:20:37;95897.13;;;2.52;70.08
21821;BME280;11073;48.586;12.066;2023-01-08T03:23:08;95950.88;;;2.97;70.12
21821;BME280;11073;48.586;12.066;2023-01-08T03:25:40;95944.72;;;2.96;70.15
21821;BME280;11073;48.586;12.066;2023-01-08T03:28:41;95881.28;;;2.51;69.68
21821;BME280;11073;48.586;12.066;2023-01-08T03:31:14;95925.72;;;2.65;69.70
21821;BME280;11073;48.586;12.066;2023-01-08T03:33:45;95938.06;;;2.66;69.94
21821;BME280;11073;48.586;12.066;2023-01-08T03:36:18;95953.31;;;2.72;69.79
21821;BME280;11073;48.586;12.066;2023-01-08T03:38:52;95855.28;;;2.11;69.79
21821;BME280;11073;48.586;12.066;2023-01-08T03:41:28;95904.69;;;2.42;69.93
21821;BME280;11073;48.586;12.066;2023-01-08T03:43:58;95868.28;;;2.28;70.03
21821;BME280;11073;48.586;12.066;2023-01-08T03:46:29;95868.91;;;2.30;69.72
21821;BME280;11073;48.586;12.066;2023-01-08T03:48:59;95845.00;;;2.15;69.80
21821;BME280;11073;48.586;12.066;2023-01-08T03:51:38;95901.03;;;2.49;69.83
21821;BME280;11073;48.586;12.066;2023-01-08T03:54:10;95894.41;;;2.39;69.76
21821;BME280;11073;48.586;12.066;2023-01-08T03:56:41;95880.81;;;2.27;69.57
21821;BME280;11073;48.586;12.066;2023-01-08T03:59:11;95887.59;;;2.30;69.81
21821;BME280;11073;48.586;12.066;2023-01-08T04:01:41;95882.88;;;2.32;69.47
21821;BME280;11073;48.586;12.066;2023-01-08T04:04:11;95857.38;;;2.22;69.63
21821;BME280;11073;48.586;12.066;2023-01-08T04:06:40;95839.44;;;2.10;69.38
21821;BME280;11073;48.586;12.066;2023-01-08T04:09:12;95907.22;;;2.57;69.74
21821;BME280;11073;48.586;12.066;2023-01-08T04:11:41;95912.56;;;2.57;69.65
21821;BME280;11073;48.586;12.066;2023-01-08T04:14:13;95877.53;;;2.38;69.76
21821;BME280;11073;48.586;12.066;2023-01-08T04:16:42;95866.84;;;2.38;69.60
21821;BME280;11073;48.586;12.066;2023-01-08T04:19:12;95842.34;;;2.15;69.59
21821;BME280;11073;48.586;12.066;2023-01-08T04:21:41;95880.03;;;2.40;69.70
21821;BME280;11073;48.586;12.066;2023-01-08T04:24:11;95816.66;;;2.07;69.44
21821;BME280;11073;48.586;12.066;2023-01-08T04:26:40;95808.66;;;2.20;69.67
21821;BME280;11073;48.586;12.066;2023-01-08T04:29:10;95814.00;;;2.20;69.43
21821;BME280;11073;48.586;12.066;2023-01-08T04:31:40;95847.09;;;2.19;69.23
21821;BME280;11073;48.586;12.066;2023-01-08T04:34:10;95868.06;;;2.29;69.08
21821;BME280;11073;48.586;12.066;2023-01-08T04:36:39;95795.00;;;1.82;68.97
21821;BME280;11073;48.586;12.066;2023-01-08T04:39:09;95825.84;;;1.91;69.14
21821;BME280;11073;48.586;12.066;2023-01-08T04:41:38;95800.28;;;1.69;69.41
21821;BME280;11073;48.586;12.066;2023-01-08T04:44:08;95853.22;;;2.13;69.39
21821;BME280;11073;48.586;12.066;2023-01-08T04:46:37;95857.13;;;2.11;69.21
21821;BME280;11073;48.586;12.066;2023-01-08T04:49:10;95871.38;;;2.25;69.26
21821;BME280;11073;48.586;12.066;2023-01-08T04:51:39;95863.50;;;2.16;69.26
21821;BME280;11073;48.586;12.066;2023-01-08T04:54:08;95881.81;;;2.19;69.25
21821;BME280;11073;48.586;12.066;2023-01-08T04:56:37;95785.47;;;1.66;69.14
21821;BME280;11073;48.586;12.066;2023-01-08T04:59:05;95802.97;;;1.76;69.27
21821;BME280;11073;48.586;12.066;2023-01-08T05:01:34;95867.00;;;2.10;69.31
21821;BME280;11073;48.586;12.066;2023-01-08T05:04:25;95784.03;;;1.64;69.18
21821;BME280;11073;48.586;12.066;2023-01-08T05:06:54;95841.94;;;2.11;69.16
21821;BME280;11073;48.586;12.066;2023-01-08T05:09:25;95850.38;;;2.21;69.29
21821;BME280;11073;48.586;12.066;2023-01-08T05:11:56;95814.94;;;1.93;69.34
21821;BME280;11073;48.586;12.066;2023-01-08T05:14:24;95847.88;;;2.13;69.34
21821;BME280;11073;48.586;12.066;2023-01-08T05:16:53;95852.19;;;2.14;69.37
21821;BME280;11073;48.586;12.066;2023-01-08T05:19:23;95838.84;;;2.14;69.51
21821;BME280;11073;48.586;12.066;2023-01-08T05:21:52;95822.41;;;2.04;69.55
21821;BME280;11073;48.586;12.066;2023-01-08T05:24:22;95776.31;;;1.82;69.49
21821;BME280;11073;48.586;12.066;2023-01-08T05:26:51;95793.41;;;2.01;69.62
21821;BME280;11073;48.586;12.066;2023-01-08T05:29:19;95855.75;;;2.35;69.42
21821;BME280;11073;48.586;12.066;2023-01-08T05:31:48;95865.84;;;2.33;69.62
21821;BME280;11073;48.586;12.066;2023-01-08T05:34:18;95848.72;;;2.20;69.43
21821;BME280;11073;48.586;12.066;2023-01-08T05:36:48;95789.72;;;1.96;69.53
21821;BME280;11073;48.586;12.066;2023-01-08T05:39:17;95815.88;;;2.20;69.38
21821;BME280;11073;48.586;12.066;2023-01-08T05:41:47;95823.88;;;2.20;69.40
21821;BME280;11073;48.586;12.066;2023-01-08T05:44:16;95796.50;;;1.98;69.21
21821;BME280;11073;48.586;12.066;2023-01-08T05:46:46;95807.19;;;2.05;69.29
21821;BME280;11073;48.586;12.066;2023-01-08T05:49:18;95809.03;;;1.98;69.13
21821;BME280;11073;48.586;12.066;2023-01-08T05:51:52;95835.97;;;2.16;69.32
21821;BME280;11073;48.586;12.066;2023-01-08T05:54:43;95743.13;;;1.50;69.53
21821;BME280;11073;48.586;12.066;2023-01-08T05:57:27;95801.78;;;1.85;69.63
21821;BME280;11073;48.586;12.066;2023-01-08T06:00:05;95737.22;;;1.55;69.56
21821;BME280;11073;48.586;12.066;2023-01-08T06:02:39;95832.72;;;2.20;69.69
21821;BME280;11073;48.586;12.066;2023-01-08T06:05:09;95770.97;;;1.82;70.02
21821;BME280;11073;48.586;12.066;2023-01-08T06:07:40;95809.88;;;2.11;70.01
21821;BME280;11073;48.586;12.066;2023-01-08T06:10:09;95739.13;;;1.68;69.98
21821;BME280;11073;48.586;12.066;2023-01-08T06:12:41;95829.25;;;2.27;69.82
21821;BME280;11073;48.586;12.066;2023-01-08T06:15:13;95833.13;;;2.24;70.07
21821;BME280;11073;48.586;12.066;2023-01-08T06:17:53;95744.44;;;1.68;70.31
21821;BME280;11073;48.586;12.066;2023-01-08T06:20:38;95799.81;;;2.07;70.57
21821;BME280;11073;48.586;12.066;2023-01-08T06:23:14;95784.22;;;2.10;70.60
21821;BME280;11073;48.586;12.066;2023-01-08T06:26:07;95720.22;;;1.69;70.77
21821;BME280;11073;48.586;12.066;2023-01-08T06:30:00;95810.53;;;2.20;70.33
21821;BME280;11073;48.586;12.066;2023-01-08T07:01:20;95706.00;;;1.55;70.35
21821;BME280;11073;48.586;12.066;2023-01-08T07:04:13;95787.25;;;2.01;70.36
21821;BME280;11073;48.586;12.066;2023-01-08T07:06:43;95747.94;;;1.68;70.29
21821;BME280;11073;48.586;12.066;2023-01-08T07:09:35;95774.66;;;1.75;70.38
21821;BME280;11073;48.586;12.066;2023-01-08T07:12:10;95766.00;;;1.73;70.42
21821;BME280;11073;48.586;12.066;2023-01-08T07:14:40;95789.25;;;1.85;70.67
21821;BME280;11073;48.586;12.066;2023-01-08T07:17:10;95829.41;;;2.12;70.30
21821;BME280;11073;48.586;12.066;2023-01-08T07:20:21;95825.72;;;2.19;70.56
21821;BME280;11073;48.586;12.066;2023-01-08T07:23:14;95832.13;;;2.25;70.65
21821;BME280;11073;48.586;12.066;2023-01-08T07:26:06;95838.03;;;2.14;70.56
21821;BME280;11073;48.586;12.066;2023-01-08T07:28:43;95838.28;;;2.26;70.66
21821;BME280;11073;48.586;12.066;2023-01-08T07:31:15;95831.13;;;2.33;70.86
21821;BME280;11073;48.586;12.066;2023-01-08T07:33:48;95847.16;;;2.53;70.72
21821;BME280;11073;48.586;12.066;2023-01-08T07:36:29;95786.06;;;2.23;70.66
21821;BME280;11073;48.586;12.066;2023-01-08T07:39:01;95777.66;;;2.26;70.66
21821;BME280;11073;48.586;12.066;2023-01-08T07:41:34;95798.84;;;2.41;70.74
21821;BME280;11073;48.586;12.066;2023-01-08T07:44:40;95796.81;;;2.43;70.74
21821;BME280;11073;48.586;12.066;2023-01-08T07:47:10;95777.25;;;2.29;70.71
21821;BME280;11073;48.586;12.066;2023-01-08T07:49:45;95755.25;;;2.14;70.57
21821;BME280;11073;48.586;12.066;2023-01-08T07:52:15;95850.47;;;2.68;70.71
21821;BME280;11073;48.586;12.066;2023-01-08T07:54:46;95773.75;;;2.22;70.54
21821;BME280;11073;48.586;12.066;2023-01-08T07:57:16;95845.34;;;2.73;70.76
21821;BME280;11073;48.586;12.066;2023-01-08T08:00:31;95774.38;;;2.31;70.69
21821;BME280;11073;48.586;12.066;2023-01-08T08:03:03;95759.97;;;2.32;70.75
21821;BME280;11073;48.586;12.066;2023-01-08T08:05:45;95809.78;;;2.66;70.63
21821;BME280;11073;48.586;12.066;2023-01-08T08:08:32;95832.00;;;2.73;70.77
21821;BME280;11073;48.586;12.066;2023-01-08T08:11:20;95791.88;;;2.53;70.74
21821;BME280;11073;48.586;12.066;2023-01-08T08:14:04;95794.34;;;2.48;70.82
21821;BME280;11073;48.586;12.066;2023-01-08T08:16:58;95790.03;;;2.47;70.80
21821;BME280;11073;48.586;12.066;2023-01-08T08:25:54;95802.81;;;2.78;70.78
21821;BME280;11073;48.586;12.066;2023-01-08T08:29:48;95840.63;;;2.95;70.86
21821;BME280;11073;48.586;12.066;2023-01-08T08:41:41;95843.53;;;3.07;71.05
21821;BME280;11073;48.586;12.066;2023-01-08T08:45:14;95764.13;;;2.74;71.05
21821;BME280;11073;48.586;12.066;2023-01-08T08:49:12;95786.75;;;2.91;71.01
21821;BME280;11073;48.586;12.066;2023-01-08T08:52:59;95777.69;;;3.06;70.94
21821;BME280;11073;48.586;12.066;2023-01-08T08:55:58;95836.09;;;3.55;71.08
21821;BME280;11073;48.586;12.066;2023-01-08T09:57:20;95849.78;;;5.31;69.72
21821;BME280;11073;48.586;12.066;2023-01-08T09:59:53;95801.50;;;4.99;69.55
21821;BME280;11073;48.586;12.066;2023-01-08T10:02:24;95758.38;;;4.76;69.57
21821;BME280;11073;48.586;12.066;2023-01-08T10:04:57;95753.13;;;4.88;69.71
21821;BME280;11073;48.586;12.066;2023-01-08T10:07:32;95802.44;;;5.12;69.25
21821;BME280;11073;48.586;12.066;2023-01-08T10:10:07;95748.41;;;4.83;69.25
21821;BME280;11073;48.586;12.066;2023-01-08T10:12:46;95774.63;;;5.06;69.15
21821;BME280;11073;48.586;12.066;2023-01-08T10:15:22;95786.88;;;5.20;69.15
21821;BME280;11073;48.586;12.066;2023-01-08T10:17:59;95758.47;;;5.13;69.07
21821;BME280;11073;48.586;12.066;2023-01-08T10:20:35;95741.94;;;5.16;68.82
21821;BME280;11073;48.586;12.066;2023-01-08T10:23:12;95798.72;;;5.56;68.86
21821;BME280;11073;48.586;12.066;2023-01-08T10:35:04;95699.31;;;5.26;68.13
21821;BME280;11073;48.586;12.066;2023-01-08T10:37:37;95696.03;;;5.24;68.01
21821;BME280;11073;48.586;12.066;2023-01-08T10:40:21;95736.06;;;5.62;67.89
21821;BME280;11073;48.586;12.066;2023-01-08T10:42:53;95711.75;;;5.75;67.76
21821;BME280;11073;48.586;12.066;2023-01-08T10:45:27;95764.50;;;6.06;67.39
21821;BME280;11073;48.586;12.066;2023-01-08T10:48:00;95731.22;;;5.89;66.97
21821;BME280;11073;48.586;12.066;2023-01-08T10:50:34;95750.28;;;6.18;66.74
21821;BME280;11073;48.586;12.066;2023-01-08T10:53:04;95717.91;;;6.13;66.57
21821;BME280;11073;48.586;12.066;2023-01-08T10:55:58;95705.63;;;6.47;66.29
21821;BME280;11073;48.586;12.066;2023-01-08T11:04:20;95695.00;;;6.63;65.26
21821;BME280;11073;48.586;12.066;2023-01-08T11:06:51;95721.81;;;6.94;64.85
21821;BME280;11073;48.586;12.066;2023-01-08T11:12:32;95773.81;;;7.29;64.17
21821;BME280;11073;48.586;12.066;2023-01-08T11:15:19;95758.81;;;7.22;63.91
21821;BME280;11073;48.586;12.066;2023-01-08T11:17:52;95698.88;;;6.79;63.80
21821;BME280;11073;48.586;12.066;2023-01-08T11:20:27;95661.66;;;6.41;63.65
21821;BME280;11073;48.586;12.066;2023-01-08T11:23:05;95668.09;;;6.40;63.76
21821;BME280;11073;48.586;12.066;2023-01-08T11:25:34;95659.53;;;6.31;63.56
21821;BME280;11073;48.586;12.066;2023-01-08T11:28:06;95720.59;;;6.54;63.49
21821;BME280;11073;48.586;12.066;2023-01-08T11:34:27;95771.50;;;6.68;63.53
21821;BME280;11073;48.586;12.066;2023-01-08T11:37:03;95695.44;;;6.07;62.93
21821;BME280;11073;48.586;12.066;2023-01-08T11:39:36;95738.75;;;6.29;63.29
21821;BME280;11073;48.586;12.066;2023-01-08T11:42:16;95713.63;;;6.23;63.44
21821;BME280;11073;48.586;12.066;2023-01-08T11:44:58;95726.66;;;6.38;63.35
21821;BME280;11073;48.586;12.066;2023-01-08T11:47:58;95703.09;;;6.22;63.71
21821;BME280;11073;48.586;12.066;2023-01-08T11:50:34;95736.78;;;6.36;63.52
21821;BME280;11073;48.586;12.066;2023-01-08T11:53:17;95761.75;;;6.55;63.45
21821;BME280;11073;48.586;12.066;2023-01-08T11:56:01;95697.69;;;6.10;63.37
21821;BME280;11073;48.586;12.066;2023-01-08T11:58:47;95667.50;;;5.96;63.52
21821;BME280;11073;48.586;12.066;2023-01-08T12:01:28;95680.66;;;6.16;63.79
21821;BME280;11073;48.586;12.066;2023-01-08T12:04:22;95698.47;;;6.41;63.81
21821;BME280;11073;48.586;12.066;2023-01-08T12:07:01;95648.50;;;6.10;63.75
21821;BME280;11073;48.586;12.066;2023-01-08T12:09:39;95707.41;;;6.53;63.80
21821;BME280;11073;48.586;12.066;2023-01-08T12:12:21;95616.13;;;6.04;63.92
21821;BME280;11073;48.586;12.066;2023-01-08T12:15:02;95702.03;;;6.64;63.92
21821;BME280;11073;48.586;12.066;2023-01-08T12:18:25;95607.38;;;6.21;63.74
21821;BME280;11073;48.586;12.066;2023-01-08T12:21:44;95695.28;;;6.97;63.68
21821;BME280;11073;48.586;12.066;2023-01-08T12:24:33;95631.75;;;6.73;63.72
21821;BME280;11073;48.586;12.066;2023-01-08T12:27:11;95614.69;;;6.67;63.40
21821;BME280;11073;48.586;12.066;2023-01-08T12:29:59;95642.28;;;6.74;62.95
21821;BME280;11073;48.586;12.066;2023-01-08T13:12:03;95669.03;;;7.28;63.48
21821;BME280;11073;48.586;12.066;2023-01-08T13:15:25;95601.09;;;6.85;63.57
21821;BME280;11073;48.586;12.066;2023-01-08T13:19:26;95580.41;;;6.74;63.73
21821;BME280;11073;48.586;12.066;2023-01-08T13:37:29;95564.03;;;6.64;64.75
21821;BME280;11073;48.586;12.066;2023-01-08T13:49:56;95547.56;;;6.49;65.50
21821;BME280;11073;48.586;12.066;2023-01-08T14:02:29;95536.69;;;6.44;66.80
21821;BME280;11073;48.586;12.066;2023-01-08T14:06:30;95530.50;;;6.31;66.75
21821;BME280;11073;48.586;12.066;2023-01-08T14:14:00;95597.22;;;6.93;66.95
21821;BME280;11073;48.586;12.066;2023-01-08T14:17:57;95562.66;;;6.61;66.91
21821;BME280;11073;48.586;12.066;2023-01-08T14:25:00;95591.97;;;6.51;67.38
21821;BME280;11073;48.586;12.066;2023-01-08T14:32:23;95551.72;;;5.98;68.17
21821;BME280;11073;48.586;12.066;2023-01-08T14:49:02;95571.25;;;6.05;68.76
21821;BME280;11073;48.586;12.066;2023-01-08T14:53:36;95551.88;;;6.03;68.63
21821;BME280;11073;48.586;12.066;2023-01-08T14:57:21;95561.44;;;6.11;68.88
21821;BME280;11073;48.586;12.066;2023-01-08T15:01:05;95586.03;;;6.38;68.98
21821;BME280;11073;48.586;12.066;2023-01-08T15:38:36;95545.91;;;6.13;69.65
21821;BME280;11073;48.586;12.066;2023-01-08T15:41:46;95530.03;;;6.11;69.75
21821;BME280;11073;48.586;12.066;2023-01-08T16:12:02;95532.81;;;6.04;70.78
21821;BME280;11073;48.586;12.066;2023-01-08T16:38:03;95445.94;;;5.45;71.13
21821;BME280;11073;48.586;12.066;2023-01-08T16:47:11;95512.03;;;5.70;71.60
21821;BME280;11073;48.586;12.066;2023-01-08T17:03:44;95435.56;;;5.07;71.96
21821;BME280;11073;48.586;12.066;2023-01-08T17:07:11;95356.75;;;4.78;71.68
21821;BME280;11073;48.586;12.066;2023-01-08T17:15:13;95363.34;;;5.06;71.81
21821;BME280;11073;48.586;12.066;2023-01-08T17:20:04;95413.63;;;5.52;71.49
21821;BME280;11073;48.586;12.066;2023-01-08T17:22:33;95410.81;;;5.47;71.46
21821;BME280;11073;48.586;12.066;2023-01-08T17:25:04;95399.00;;;5.36;71.41
21821;BME280;11073;48.586;12.066;2023-01-08T17:27:35;95345.13;;;4.96;71.33
21821;BME280;11073;48.586;12.066;2023-01-08T17:30:10;95338.09;;;4.83;71.30
21821;BME280;11073;48.586;12.066;2023-01-08T17:32:42;95415.19;;;5.18;71.40
21821;BME280;11073;48.586;12.066;2023-01-08T17:35:47;95359.59;;;4.95;71.70
21821;BME280;11073;48.586;12.066;2023-01-08T17:38:22;95314.31;;;4.75;71.56
21821;BME280;11073;48.586;12.066;2023-01-08T17:41:19;95341.03;;;4.82;71.63
21821;BME280;11073;48.586;12.066;2023-01-08T17:45:18;95381.91;;;5.07;71.73
21821;BME280;11073;48.586;12.066;2023-01-08T17:49:07;95295.97;;;4.60;71.97
21821;BME280;11073;48.586;12.066;2023-01-08T17:52:01;95272.44;;;4.32;71.98
21821;BME280;11073;48.586;12.066;2023-01-08T17:54:31;95312.00;;;4.49;72.07
21821;BME280;11073;48.586;12.066;2023-01-08T17:57:00;95308.41;;;4.55;72.44
21821;BME280;11073;48.586;12.066;2023-01-08T17:59:29;95356.06;;;4.83;72.15
21821;BME280;11073;48.586;12.066;2023-01-08T18:01:57;95348.72;;;4.78;71.99
21821;BME280;11073;48.586;12.066;2023-01-08T18:05:02;95400.91;;;5.06;71.74
21821;BME280;11073;48.586;12.066;2023-01-08T18:19:41;95387.56;;;4.57;72.81
21821;BME280;11073;48.586;12.066;2023-01-08T18:22:10;95385.69;;;4.58;72.94
21821;BME280;11073;48.586;12.066;2023-01-08T18:24:39;95386.53;;;4.58;73.04
21821;BME280;11073;48.586;12.066;2023-01-08T18:27:08;95336.00;;;4.43;72.52
21821;BME280;11073;48.586;12.066;2023-01-08T18:29:37;95276.50;;;4.23;72.63
21821;BME280;11073;48.586;12.066;2023-01-08T18:32:06;95299.00;;;4.34;72.79
21821;BME280;11073;48.586;12.066;2023-01-08T18:34:34;95310.53;;;4.34;72.76
21821;BME280;11073;48.586;12.066;2023-01-08T18:37:13;95332.03;;;4.46;72.81
21821;BME280;11073;48.586;12.066;2023-01-08T18:40:17;95265.06;;;3.98;72.80
21821;BME280;11073;48.586;12.066;2023-01-08T18:42:49;95348.94;;;4.47;72.98
21821;BME280;11073;48.586;12.066;2023-01-08T18:45:28;95289.81;;;4.11;73.26
21821;BME280;11073;48.586;12.066;2023-01-08T18:52:32;95249.16;;;4.03;73.40
21821;BME280;11073;48.586;12.066;2023-01-08T19:00:06;95198.69;;;3.88;73.26
21821;BME280;11073;48.586;12.066;2023-01-08T19:03:27;95235.94;;;4.20;73.34
21821;BME280;11073;48.586;12.066;2023-01-08T19:10:24;95288.38;;;4.57;73.35
21821;BME280;11073;48.586;12.066;2023-01-08T19:13:03;95242.25;;;4.25;73.06
21821;BME280;11073;48.586;12.066;2023-01-08T19:15:41;95239.97;;;4.40;73.16
21821;BME280;11073;48.586;12.066;2023-01-08T19:18:15;95188.50;;;4.08;73.15
21821;BME280;11073;48.586;12.066;2023-01-08T19:20:49;95218.38;;;4.24;73.11
21821;BME280;11073;48.586;12.066;2023-01-08T19:23:27;95261.13;;;4.60;73.23
21821;BME280;11073;48.586;12.066;2023-01-08T19:26:20;95260.63;;;4.63;73.19
21821;BME280;11073;48.586;12.066;2023-01-08T19:32:10;95175.34;;;4.07;73.19
21821;BME280;11073;48.586;12.066;2023-01-08T19:34:59;95227.63;;;4.39;72.99
21821;BME280;11073;48.586;12.066;2023-01-08T19:37:29;95205.22;;;4.22;73.07
21821;BME280;11073;48.586;12.066;2023-01-08T19:40:01;95177.47;;;4.17;73.34
21821;BME280;11073;48.586;12.066;2023-01-08T19:43:00;95205.63;;;4.49;73.08
21821;BME280;11073;48.586;12.066;2023-01-08T19:46:20;95171.91;;;4.41;73.14
21821;BME280;11073;48.586;12.066;2023-01-08T19:49:02;95137.31;;;4.28;72.93
21821;BME280;11073;48.586;12.066;2023-01-08T19:51:47;95130.19;;;4.22;72.81
21821;BME280;11073;48.586;12.066;2023-01-08T19:54:22;95199.34;;;4.67;72.89
21821;BME280;11073;48.586;12.066;2023-01-08T19:56:56;95173.13;;;4.57;72.81
21821;BME280;11073;48.586;12.066;2023-01-08T19:59:26;95210.19;;;4.84;72.78
21821;BME280;11073;48.586;12.066;2023-01-08T20:01:55;95199.25;;;4.85;72.79
21821;BME280;11073;48.586;12.066;2023-01-08T20:04:23;95204.97;;;4.89;72.63
21821;BME280;11073;48.586;12.066;2023-01-08T20:06:53;95187.94;;;4.83;72.61
21821;BME280;11073;48.586;12.066;2023-01-08T20:09:26;95183.50;;;4.89;72.58
21821;BME280;11073;48.586;12.066;2023-01-08T20:11:55;95183.50;;;4.89;72.46
21821;BME280;11073;48.586;12.066;2023-01-08T20:14:24;95171.84;;;4.83;72.57
21821;BME280;11073;48.586;12.066;2023-01-08T20:16:54;95162.53;;;4.74;72.52
21821;BME280;11073;48.586;12.066;2023-01-08T20:19:26;95171.38;;;4.75;72.44
21821;BME280;11073;48.586;12.066;2023-01-08T20:21:59;95104.47;;;4.33;72.63